Huvudsida
METAR-TAF:

METAR-TAF

Flygplatser :

Trevisos flygplats

Treviso, Italien

latitud: 45-39N, longitud: 012-11E, höjd: 18 m

Aktuellt väderrapport

Denna rapport gjordes för 31 minuter sedan, klockan 23:50 UTC
Vind 2 kt varierande vindriktning
Temperatur 5°C
Fuktighet 56%
Tryck 1036 hPa
Sikt 10 km eller mer

METAR: LIPH 192350Z AUTO VRB02KT 9999 BKN170/// 05/M03 Q1036

Tid: 01:21 (00:21 UTC)

Väderprognos

Denna rapport gjordes för 1 timme och 21 minuter sedan, klockan 23:00 UTC
Prognos gäller från 20 kl. 00 UTC till 20 kl. 24 UTC
Vind 5 kt varierande vindriktning
Sikt 10 km eller mer
Inga moln under 1 500 m eller inga cumulonimbus

TAF: LIPH 192300Z 2000/2024 VRB05KT CAVOK

Aktuella väderrapporter och prognoser från 4000 flygplatser (METAR- och TAF-rapporter).

De tillgängliga stationerna syns som gula och röda prickar på kartan.

För musen över prickarna för att se namnen på stationerna.

Klicka sedan för att få väderrapporter och prognoser.

För att ändra kartan: Klicka på de gröna knapparna med ett svart kors på för att zooma in; den gröna knappen med ett streck på för att zooma ut; eller på de gröna pilarna för angränsande kartor.


METAR-TAF: